Time;durP1;ratioP1;P1;durP2;ratioP2;P2;SDS_P1;SDS_P2;PMS_P1;PMS_P2;Temp;Humidity;BMP_temperature;BMP_pressure;BME280_temperature;BME280_humidity;BME280_pressure;Samples;Min_cycle;Max_cycle;Signal;HPM_P1;HPM_P2
2021/04/26 00:00:43;;;;;;;;;;;12.40;40.60;;;;;;5034898;28;19993;-78
2021/04/26 00:03:09;;;;;;;;;;;12.30;40.70;;;;;;5039700;28;19921;-78
2021/04/26 00:05:35;;;;;;;;;;;12.20;40.70;;;;;;5047012;28;19925;-80
2021/04/26 00:08:01;;;;;;;;;;;12.20;40.80;;;;;;5043222;28;19922;-78
2021/04/26 00:10:29;;;;;;;;;;;12.20;41.00;;;;;;5044953;28;19921;-78
2021/04/26 00:12:55;;;;;;;;;;;12.20;41.00;;;;;;5049914;28;19920;-77
2021/04/26 00:15:22;;;;;;;;;;;12.10;41.00;;;;;;5052975;28;19928;-78
2021/04/26 00:17:49;;;;;;;;;;;12.10;41.00;;;;;;5045874;28;19932;-78
2021/04/26 00:20:16;;;;;;;;;;;12.20;41.00;;;;;;5039819;28;19925;-78
2021/04/26 00:22:42;;;;;;;;;;;12.20;40.80;;;;;;5047652;28;19921;-78
2021/04/26 00:25:09;;;;;;;;;;;12.20;40.50;;;;;;5034462;28;19925;-78
2021/04/26 00:27:37;;;;;;;;;;;12.30;40.40;;;;;;5034026;28;19925;-77
2021/04/26 00:30:04;;;;;;;;;;;12.40;40.10;;;;;;5033973;28;19924;-77
2021/04/26 00:32:30;;;;;;;;;;;12.50;39.60;;;;;;5033562;28;20350;-78
2021/04/26 00:34:56;;;;;;;;;;;12.50;39.20;;;;;;5026842;28;20294;-79
2021/04/26 00:37:23;;;;;;;;;;;12.60;39.10;;;;;;5032817;28;19944;-79
2021/04/26 00:39:49;;;;;;;;;;;12.60;38.70;;;;;;5034418;28;20281;-80
2021/04/26 00:42:15;;;;;;;;;;;12.60;38.70;;;;;;5032184;28;20036;-79
2021/04/26 00:44:42;;;;;;;;;;;12.70;38.60;;;;;;5033846;28;19975;-79
2021/04/26 00:47:09;;;;;;;;;;;12.80;38.70;;;;;;5052501;28;20392;-80
2021/04/26 00:49:35;;;;;;;;;;;12.70;38.60;;;;;;5038209;28;19921;-80
2021/04/26 00:52:01;;;;;;;;;;;12.70;38.40;;;;;;5033920;28;19932;-80
2021/04/26 00:54:28;;;;;;;;;;;12.60;38.50;;;;;;5033445;28;19969;-80
2021/04/26 00:56:54;;;;;;;;;;;12.60;38.60;;;;;;5034107;28;19925;-80
2021/04/26 00:59:22;;;;;;;;;;;12.60;38.80;;;;;;5035893;28;20415;-80
2021/04/26 01:01:49;;;;;;;;;;;12.60;38.80;;;;;;5033825;28;20353;-80
2021/04/26 01:04:15;;;;;;;;;;;12.60;38.90;;;;;;5033011;28;19979;-78
2021/04/26 01:06:42;;;;;;;;;;;12.50;39.00;;;;;;5033437;28;19925;-78
2021/04/26 01:09:08;;;;;;;;;;;12.40;39.20;;;;;;5031823;28;20309;-78
2021/04/26 01:11:40;;;;;;;;;;;12.40;39.40;;;;;;5038616;28;19928;-79
2021/04/26 01:14:10;;;;;;;;;;;12.40;39.60;;;;;;5049929;28;19920;-78
2021/04/26 01:16:38;;;;;;;;;;;12.30;39.60;;;;;;5047967;28;19924;-78
2021/04/26 01:19:09;;;;;;;;;;;12.30;39.90;;;;;;5033412;28;19928;-78
2021/04/26 01:21:58;;;;;;;;;;;12.20;39.90;;;;;;5038349;28;19950;-78
2021/04/26 01:24:37;;;;;;;;;;;12.20;40.00;;;;;;5039419;28;19921;-78
2021/04/26 01:27:08;;;;;;;;;;;12.20;40.10;;;;;;5032145;28;20277;-78
2021/04/26 01:29:46;;;;;;;;;;;12.20;40.10;;;;;;5033068;28;20407;-78
2021/04/26 01:32:19;;;;;;;;;;;12.30;40.20;;;;;;5038965;28;19920;-78
2021/04/26 01:34:46;;;;;;;;;;;12.30;40.10;;;;;;5037046;28;19921;-78
2021/04/26 01:37:13;;;;;;;;;;;12.40;40.00;;;;;;5039962;28;19921;-78
2021/04/26 01:39:42;;;;;;;;;;;12.30;40.00;;;;;;5033466;28;19967;-78
2021/04/26 01:42:08;;;;;;;;;;;12.20;40.20;;;;;;5034192;28;19944;-78
2021/04/26 01:44:35;;;;;;;;;;;12.20;40.30;;;;;;5043338;28;19928;-77
2021/04/26 01:47:02;;;;;;;;;;;12.20;40.60;;;;;;5031513;28;19959;-78
2021/04/26 01:49:29;;;;;;;;;;;12.10;40.70;;;;;;5032322;28;20032;-78
2021/04/26 01:51:55;;;;;;;;;;;12.10;40.80;;;;;;5032510;28;20365;-78
2021/04/26 01:54:22;;;;;;;;;;;12.00;41.00;;;;;;5032233;28;20437;-78
2021/04/26 01:56:49;;;;;;;;;;;12.00;41.20;;;;;;5033095;28;19921;-78
2021/04/26 01:59:15;;;;;;;;;;;11.90;41.30;;;;;;5032671;28;19921;-79
2021/04/26 02:01:42;;;;;;;;;;;11.90;41.60;;;;;;5031458;28;19922;-78
2021/04/26 02:04:08;;;;;;;;;;;11.80;41.60;;;;;;5041198;28;19924;-78
2021/04/26 02:06:36;;;;;;;;;;;11.80;41.90;;;;;;5032497;28;19925;-78
2021/04/26 02:09:04;;;;;;;;;;;11.70;41.90;;;;;;5035220;28;19975;-78
2021/04/26 02:11:30;;;;;;;;;;;11.70;42.10;;;;;;5033044;28;19975;-78
2021/04/26 02:13:57;;;;;;;;;;;11.70;42.10;;;;;;5035259;28;19921;-78
2021/04/26 02:16:23;;;;;;;;;;;11.70;42.30;;;;;;5036119;28;19921;-78
2021/04/26 02:18:49;;;;;;;;;;;11.60;42.20;;;;;;5032069;28;19932;-78
2021/04/26 02:21:16;;;;;;;;;;;11.70;42.30;;;;;;5031728;28;19925;-78
2021/04/26 02:23:43;;;;;;;;;;;11.70;42.30;;;;;;5032457;28;19936;-79
2021/04/26 02:26:09;;;;;;;;;;;11.60;42.30;;;;;;5037883;28;19928;-78
2021/04/26 02:28:35;;;;;;;;;;;11.70;42.40;;;;;;5031325;28;19944;-78
2021/04/26 02:31:02;;;;;;;;;;;11.70;42.50;;;;;;5032067;28;19921;-78
2021/04/26 02:33:30;;;;;;;;;;;11.70;42.50;;;;;;5032156;28;19925;-79
2021/04/26 02:35:59;;;;;;;;;;;11.70;42.40;;;;;;5037243;28;19968;-79
2021/04/26 02:38:26;;;;;;;;;;;11.70;42.50;;;;;;5051465;28;19932;-79
2021/04/26 02:40:57;;;;;;;;;;;11.70;42.40;;;;;;5046824;28;19925;-80
2021/04/26 02:43:24;;;;;;;;;;;11.70;42.60;;;;;;5032115;28;19929;-80
2021/04/26 02:45:52;;;;;;;;;;;11.70;42.70;;;;;;5034178;28;19933;-81
2021/04/26 02:48:20;;;;;;;;;;;11.70;42.90;;;;;;5036287;28;20265;-79
2021/04/26 02:50:46;;;;;;;;;;;11.60;42.80;;;;;;5035089;28;19925;-79
2021/04/26 02:53:13;;;;;;;;;;;11.60;42.90;;;;;;5036430;28;20285;-80
2021/04/26 02:55:40;;;;;;;;;;;11.60;42.90;;;;;;5034361;28;19921;-81
2021/04/26 02:58:07;;;;;;;;;;;11.60;43.00;;;;;;5035295;28;20369;-80
2021/04/26 03:00:34;;;;;;;;;;;11.60;43.00;;;;;;5036353;28;19948;-79
2021/04/26 03:03:00;;;;;;;;;;;11.60;43.00;;;;;;5035909;28;19925;-78
2021/04/26 03:05:27;;;;;;;;;;;11.50;43.10;;;;;;5035433;28;19921;-77
2021/04/26 03:07:54;;;;;;;;;;;11.50;43.20;;;;;;5048395;28;19920;-78
2021/04/26 03:10:20;;;;;;;;;;;11.40;43.20;;;;;;5055881;28;19921;-78
2021/04/26 03:12:49;;;;;;;;;;;11.40;43.20;;;;;;5043129;28;19921;-78
2021/04/26 03:15:17;;;;;;;;;;;11.40;43.20;;;;;;5035249;28;20365;-78
2021/04/26 03:17:44;;;;;;;;;;;11.40;43.30;;;;;;5041707;28;20365;-78
2021/04/26 03:20:12;;;;;;;;;;;11.40;43.30;;;;;;5053039;28;19921;-78
2021/04/26 03:22:39;;;;;;;;;;;11.40;43.20;;;;;;5046185;28;19932;-78
2021/04/26 03:25:06;;;;;;;;;;;11.40;43.00;;;;;;5035124;28;20358;-77
2021/04/26 03:27:32;;;;;;;;;;;11.40;43.00;;;;;;5038938;28;19921;-77
2021/04/26 03:29:59;;;;;;;;;;;11.40;43.00;;;;;;5053731;28;19921;-77
2021/04/26 03:32:26;;;;;;;;;;;11.40;43.00;;;;;;5050036;28;19925;-78
2021/04/26 03:34:53;;;;;;;;;;;11.30;42.90;;;;;;5034992;28;19925;-77
2021/04/26 03:37:20;;;;;;;;;;;11.30;42.90;;;;;;5034861;28;19921;-76
2021/04/26 03:39:47;;;;;;;;;;;11.30;42.80;;;;;;5035339;28;19928;-78
2021/04/26 03:42:14;;;;;;;;;;;11.20;42.80;;;;;;5035585;28;20250;-78
2021/04/26 03:44:42;;;;;;;;;;;11.20;42.80;;;;;;5034926;28;19921;-77
2021/04/26 03:47:09;;;;;;;;;;;11.20;42.90;;;;;;5046498;28;19928;-77
2021/04/26 03:49:36;;;;;;;;;;;11.20;42.80;;;;;;5035604;28;19921;-78
2021/04/26 03:52:02;;;;;;;;;;;11.10;42.70;;;;;;5035141;28;20277;-78
2021/04/26 03:54:28;;;;;;;;;;;11.10;42.70;;;;;;5034289;28;19925;-79
2021/04/26 03:56:55;;;;;;;;;;;11.10;42.70;;;;;;5034934;28;20274;-78
2021/04/26 03:59:21;;;;;;;;;;;11.00;42.50;;;;;;5035677;28;19920;-78
2021/04/26 04:01:49;;;;;;;;;;;11.00;42.80;;;;;;5048708;28;19921;-79
2021/04/26 04:04:16;;;;;;;;;;;11.00;42.80;;;;;;5044327;28;20431;-80
2021/04/26 04:06:43;;;;;;;;;;;11.00;42.80;;;;;;5044181;28;19921;-78
2021/04/26 04:09:10;;;;;;;;;;;11.00;42.70;;;;;;5048664;28;19928;-78
2021/04/26 04:11:36;;;;;;;;;;;11.00;42.70;;;;;;5049473;28;19932;-78
2021/04/26 04:14:03;;;;;;;;;;;11.00;42.60;;;;;;5051500;28;19933;-79
2021/04/26 04:16:30;;;;;;;;;;;11.00;42.50;;;;;;5053230;28;19921;-80
2021/04/26 04:18:56;;;;;;;;;;;11.00;42.20;;;;;;5053569;28;19920;-79
2021/04/26 04:21:22;;;;;;;;;;;11.00;42.20;;;;;;5052284;28;19924;-79
2021/04/26 04:23:50;;;;;;;;;;;11.00;42.10;;;;;;5054216;28;19921;-78
2021/04/26 04:26:16;;;;;;;;;;;10.90;42.00;;;;;;5051313;28;19944;-77
2021/04/26 04:28:42;;;;;;;;;;;10.90;42.00;;;;;;5049765;28;19928;-77
2021/04/26 04:31:09;;;;;;;;;;;10.90;42.00;;;;;;5045820;28;19928;-76
2021/04/26 04:33:35;;;;;;;;;;;10.90;42.10;;;;;;5043187;28;20258;-78
2021/04/26 04:36:01;;;;;;;;;;;10.90;41.90;;;;;;5042926;28;19944;-77
2021/04/26 04:38:27;;;;;;;;;;;10.90;41.50;;;;;;5036354;28;19925;-78
2021/04/26 04:40:55;;;;;;;;;;;10.80;41.20;;;;;;5043430;28;19925;-78
2021/04/26 04:43:22;;;;;;;;;;;10.80;40.80;;;;;;5050470;28;19928;-80
2021/04/26 04:45:48;;;;;;;;;;;10.70;41.20;;;;;;5036109;28;19920;-78
2021/04/26 04:48:15;;;;;;;;;;;10.70;41.30;;;;;;5033548;28;19925;-79
2021/04/26 04:50:41;;;;;;;;;;;10.80;41.50;;;;;;5034063;28;19921;-79
2021/04/26 04:53:08;;;;;;;;;;;10.80;41.30;;;;;;5032707;28;19921;-78
2021/04/26 04:55:34;;;;;;;;;;;10.90;41.10;;;;;;5039844;28;20297;-79
2021/04/26 04:58:02;;;;;;;;;;;10.90;41.10;;;;;;5033624;28;19921;-79
2021/04/26 05:00:28;;;;;;;;;;;10.90;41.10;;;;;;5038808;28;19920;-76
2021/04/26 05:02:54;;;;;;;;;;;10.90;41.10;;;;;;5036144;28;20423;-81
2021/04/26 05:05:21;;;;;;;;;;;11.00;41.20;;;;;;5036397;28;19921;-79
2021/04/26 05:07:47;;;;;;;;;;;11.10;41.30;;;;;;5041456;28;19921;-78
2021/04/26 05:10:13;;;;;;;;;;;11.10;41.30;;;;;;5046234;28;19921;-77
2021/04/26 05:12:40;;;;;;;;;;;11.20;41.20;;;;;;5033085;28;19990;-79
2021/04/26 05:15:08;;;;;;;;;;;11.20;41.20;;;;;;5032086;28;19951;-81
2021/04/26 05:17:34;;;;;;;;;;;11.30;41.20;;;;;;5032075;28;19932;-80
2021/04/26 05:20:01;;;;;;;;;;;11.40;41.20;;;;;;5034057;28;19921;-79
2021/04/26 05:22:27;;;;;;;;;;;11.40;41.20;;;;;;5033772;28;19925;-79
2021/04/26 05:24:54;;;;;;;;;;;11.50;41.20;;;;;;5033713;28;19944;-81
2021/04/26 05:27:21;;;;;;;;;;;11.50;41.10;;;;;;5032718;28;19940;-81
2021/04/26 05:29:47;;;;;;;;;;;11.50;41.00;;;;;;5053016;28;20463;-81
2021/04/26 05:32:14;;;;;;;;;;;11.60;41.10;;;;;;5048521;28;20353;-81
2021/04/26 05:34:40;;;;;;;;;;;11.60;41.10;;;;;;5041294;28;19921;-80
2021/04/26 05:37:07;;;;;;;;;;;11.70;40.90;;;;;;5048144;28;19932;-82
2021/04/26 05:39:33;;;;;;;;;;;11.70;40.70;;;;;;5029844;28;20326;-78
2021/04/26 06:03:51;;;;;;;;;;;11.90;39.80;;;;;;4985481;28;19925;-87
2021/04/26 06:12:44;;;;;;;;;;;12.00;39.20;;;;;;4992866;28;19999;-88
2021/04/26 06:15:27;;;;;;;;;;;11.90;39.20;;;;;;4998812;28;19941;-86
2021/04/26 07:01:50;;;;;;;;;;;12.60;38.50;;;;;;4924342;29;19944;-86
2021/04/26 07:10:29;;;;;;;;;;;13.00;37.50;;;;;;4870930;29;20007;-86
2021/04/26 07:12:55;;;;;;;;;;;13.20;37.80;;;;;;4925583;29;19927;-81
2021/04/26 07:15:21;;;;;;;;;;;13.30;37.70;;;;;;4939127;28;20376;-81
2021/04/26 07:17:49;;;;;;;;;;;13.40;37.60;;;;;;5024870;28;19921;-80
2021/04/26 07:20:15;;;;;;;;;;;13.50;37.20;;;;;;5031248;28;19925;-81
2021/04/26 07:22:42;;;;;;;;;;;13.50;36.80;;;;;;5033926;28;19928;-80
2021/04/26 07:25:09;;;;;;;;;;;13.60;36.90;;;;;;5035960;28;19991;-82
2021/04/26 07:27:38;;;;;;;;;;;13.80;36.60;;;;;;5035571;28;20424;-80
2021/04/26 07:30:05;;;;;;;;;;;13.90;36.80;;;;;;5034998;28;19928;-80
2021/04/26 07:32:32;;;;;;;;;;;14.10;36.60;;;;;;5034976;28;19928;-81
2021/04/26 07:34:59;;;;;;;;;;;14.20;36.40;;;;;;5034073;28;19928;-80
2021/04/26 07:37:26;;;;;;;;;;;14.30;36.10;;;;;;5035011;28;20393;-81
2021/04/26 07:39:52;;;;;;;;;;;14.30;35.70;;;;;;5035003;28;19921;-81
2021/04/26 07:42:19;;;;;;;;;;;14.50;35.50;;;;;;5035082;28;19920;-81
2021/04/26 07:44:45;;;;;;;;;;;14.60;35.30;;;;;;5035267;28;19921;-81
2021/04/26 07:47:11;;;;;;;;;;;14.70;35.00;;;;;;5035039;28;19929;-81
2021/04/26 07:49:39;;;;;;;;;;;14.80;34.90;;;;;;5033068;28;19921;-80
2021/04/26 07:52:06;;;;;;;;;;;14.90;34.60;;;;;;5034080;28;19921;-81
2021/04/26 07:54:32;;;;;;;;;;;15.00;34.50;;;;;;5035004;28;20256;-80
2021/04/26 07:56:59;;;;;;;;;;;15.00;34.20;;;;;;5051655;28;20262;-78
2021/04/26 07:59:25;;;;;;;;;;;15.00;34.10;;;;;;5036119;28;19971;-79
2021/04/26 08:01:51;;;;;;;;;;;15.10;34.30;;;;;;5034882;28;19922;-79
2021/04/26 08:04:17;;;;;;;;;;;15.20;34.10;;;;;;5034580;28;19947;-79
2021/04/26 08:06:44;;;;;;;;;;;15.30;34.00;;;;;;5034125;28;19921;-78
2021/04/26 08:09:11;;;;;;;;;;;15.50;34.10;;;;;;5042403;28;19921;-79
2021/04/26 08:11:38;;;;;;;;;;;15.60;33.90;;;;;;5032971;28;19933;-81
2021/04/26 08:14:12;;;;;;;;;;;15.70;33.50;;;;;;5034579;28;19940;-81
2021/04/26 08:16:51;;;;;;;;;;;15.80;33.30;;;;;;5013006;28;19928;-82
2021/04/26 08:19:17;;;;;;;;;;;15.70;33.30;;;;;;5040930;28;19920;-79
2021/04/26 08:21:43;;;;;;;;;;;15.80;33.30;;;;;;5044791;28;19921;-79
2021/04/26 08:24:11;;;;;;;;;;;15.90;33.20;;;;;;5034961;28;19921;-79
2021/04/26 08:26:40;;;;;;;;;;;16.00;33.10;;;;;;5050390;28;19921;-80
2021/04/26 08:29:08;;;;;;;;;;;16.00;33.60;;;;;;5054205;28;20274;-80
2021/04/26 08:31:34;;;;;;;;;;;16.00;33.40;;;;;;5053463;28;20020;-80
2021/04/26 08:34:00;;;;;;;;;;;16.10;33.40;;;;;;5048452;28;19944;-79
2021/04/26 08:36:26;;;;;;;;;;;16.20;33.20;;;;;;5033351;28;19925;-80
2021/04/26 08:38:53;;;;;;;;;;;16.20;33.00;;;;;;5034411;28;19928;-80
2021/04/26 08:41:20;;;;;;;;;;;16.10;32.80;;;;;;5033729;28;19921;-80
2021/04/26 08:43:47;;;;;;;;;;;16.20;33.00;;;;;;5032778;28;19920;-79
2021/04/26 08:46:13;;;;;;;;;;;16.30;32.90;;;;;;5033885;28;20370;-79
2021/04/26 08:48:40;;;;;;;;;;;16.40;33.10;;;;;;5034231;28;20285;-80
2021/04/26 08:51:07;;;;;;;;;;;16.40;32.80;;;;;;5033062;28;19960;-80
2021/04/26 08:53:35;;;;;;;;;;;16.50;32.90;;;;;;5033277;28;20307;-80
2021/04/26 08:56:01;;;;;;;;;;;16.60;33.20;;;;;;5033826;28;19929;-79
2021/04/26 08:58:29;;;;;;;;;;;16.60;32.70;;;;;;5033598;28;19925;-79
2021/04/26 09:00:55;;;;;;;;;;;16.70;32.60;;;;;;5034003;28;20012;-80
2021/04/26 09:03:30;;;;;;;;;;;16.70;32.30;;;;;;5033899;28;19921;-80
2021/04/26 09:05:56;;;;;;;;;;;16.80;32.10;;;;;;5033700;28;19921;-80
2021/04/26 09:08:23;;;;;;;;;;;16.90;32.20;;;;;;5031879;28;19921;-79
2021/04/26 09:10:50;;;;;;;;;;;16.90;31.90;;;;;;5033953;28;19925;-79
2021/04/26 09:13:27;;;;;;;;;;;16.90;31.80;;;;;;5033724;28;19925;-80
2021/04/26 09:15:55;;;;;;;;;;;16.80;31.70;;;;;;5032466;28;19960;-79
2021/04/26 09:18:42;;;;;;;;;;;16.70;31.90;;;;;;5033485;28;19921;-80
2021/04/26 09:21:12;;;;;;;;;;;16.70;32.20;;;;;;5033494;28;19921;-79
2021/04/26 09:23:39;;;;;;;;;;;16.60;32.30;;;;;;5033424;28;20366;-79
2021/04/26 09:26:22;;;;;;;;;;;16.70;32.30;;;;;;5033372;28;19928;-80
2021/04/26 09:29:03;;;;;;;;;;;16.70;32.30;;;;;;5033078;28;19921;-80
2021/04/26 09:31:31;;;;;;;;;;;16.70;32.20;;;;;;5032988;28;19921;-80
2021/04/26 09:33:57;;;;;;;;;;;16.80;32.40;;;;;;5032341;28;19921;-80
2021/04/26 09:36:31;;;;;;;;;;;16.80;32.40;;;;;;5033410;28;19921;-80
2021/04/26 09:38:59;;;;;;;;;;;16.80;32.40;;;;;;5032958;28;19932;-80
2021/04/26 09:41:26;;;;;;;;;;;16.70;32.80;;;;;;5032614;28;19921;-80
2021/04/26 09:43:53;;;;;;;;;;;16.70;32.80;;;;;;5144520;22;19935;-80
2021/04/26 09:46:21;;;;;;;;;;;16.50;33.00;;;;;;5030430;28;19929;-80
2021/04/26 09:48:50;;;;;;;;;;;16.40;33.20;;;;;;5032905;28;20396;-81
2021/04/26 09:51:20;;;;;;;;;;;16.40;33.30;;;;;;5032318;28;19933;-80
2021/04/26 09:54:00;;;;;;;;;;;16.30;33.40;;;;;;5032101;28;20373;-81
2021/04/26 09:56:30;;;;;;;;;;;16.20;33.70;;;;;;5032150;28;19979;-81
2021/04/26 09:58:58;;;;;;;;;;;16.20;33.60;;;;;;5031870;28;19926;-81
2021/04/26 10:01:25;;;;;;;;;;;16.20;34.00;;;;;;5031244;28;20406;-81
2021/04/26 10:03:52;;;;;;;;;;;16.20;34.00;;;;;;5032149;28;19925;-80
2021/04/26 10:06:24;;;;;;;;;;;16.20;33.80;;;;;;5032401;28;20344;-80
2021/04/26 10:08:54;;;;;;;;;;;16.20;33.70;;;;;;5032688;28;19932;-80
2021/04/26 10:11:21;;;;;;;;;;;16.20;33.70;;;;;;5032349;28;19927;-80
2021/04/26 10:13:49;;;;;;;;;;;16.30;33.70;;;;;;5032068;28;19940;-80
2021/04/26 10:16:18;;;;;;;;;;;16.30;33.80;;;;;;5032716;28;19932;-80
2021/04/26 10:18:44;;;;;;;;;;;16.30;34.00;;;;;;5032239;28;19948;-80
2021/04/26 10:21:31;;;;;;;;;;;16.40;34.20;;;;;;5032245;28;19925;-80
2021/04/26 10:23:58;;;;;;;;;;;16.60;34.30;;;;;;5032470;28;19979;-80
2021/04/26 10:26:46;;;;;;;;;;;16.80;34.00;;;;;;5032356;28;19928;-79
2021/04/26 10:29:17;;;;;;;;;;;16.90;33.80;;;;;;5030758;28;19930;-79
2021/04/26 10:32:03;;;;;;;;;;;17.00;33.40;;;;;;5031937;28;20024;-79
2021/04/26 10:34:32;;;;;;;;;;;17.20;33.10;;;;;;5031427;28;19925;-81
2021/04/26 10:37:01;;;;;;;;;;;17.30;32.80;;;;;;5032124;28;19964;-79
2021/04/26 10:39:28;;;;;;;;;;;17.50;32.90;;;;;;5032050;28;19925;-80
2021/04/26 10:41:57;;;;;;;;;;;17.70;31.60;;;;;;5031627;28;19925;-80
2021/04/26 10:44:42;;;;;;;;;;;17.90;31.00;;;;;;5031731;28;19978;-80
2021/04/26 10:47:15;;;;;;;;;;;18.10;30.80;;;;;;5032234;28;19978;-81
2021/04/26 10:49:42;;;;;;;;;;;18.40;30.50;;;;;;5032065;28;19929;-82
2021/04/26 10:52:23;;;;;;;;;;;18.50;30.90;;;;;;5032284;28;19925;-81
2021/04/26 10:54:51;;;;;;;;;;;18.70;30.90;;;;;;5029178;28;19925;-81
2021/04/26 10:57:33;;;;;;;;;;;19.10;31.10;;;;;;5039932;28;19936;-81
2021/04/26 11:00:21;;;;;;;;;;;19.60;30.90;;;;;;5019599;28;19929;-82
2021/04/26 11:02:47;;;;;;;;;;;20.00;30.00;;;;;;5032686;28;20281;-82
2021/04/26 11:05:17;;;;;;;;;;;20.70;29.80;;;;;;5031795;28;19929;-79
2021/04/26 11:07:46;;;;;;;;;;;21.70;28.90;;;;;;5036865;28;19959;-79
2021/04/26 11:10:34;;;;;;;;;;;22.80;28.30;;;;;;5035831;28;20300;-79
2021/04/26 11:13:01;;;;;;;;;;;23.70;26.40;;;;;;5044301;28;19932;-80
2021/04/26 11:15:29;;;;;;;;;;;24.50;25.80;;;;;;5038076;28;19959;-79
2021/04/26 11:17:56;;;;;;;;;;;25.60;24.90;;;;;;5052079;28;19933;-82
2021/04/26 11:20:23;;;;;;;;;;;26.80;24.00;;;;;;5035991;28;19925;-82
2021/04/26 11:22:49;;;;;;;;;;;28.50;22.90;;;;;;5033939;28;19932;-81
2021/04/26 11:25:32;;;;;;;;;;;30.00;21.10;;;;;;5040676;28;19929;-80
2021/04/26 11:27:59;;;;;;;;;;;31.50;20.50;;;;;;5047486;28;19925;-80
2021/04/26 11:30:29;;;;;;;;;;;33.20;18.80;;;;;;5050890;28;19929;-80
2021/04/26 11:32:56;;;;;;;;;;;34.70;18.20;;;;;;5040078;28;19960;-80
2021/04/26 11:35:23;;;;;;;;;;;36.60;17.10;;;;;;5040322;28;19940;-80
2021/04/26 11:37:50;;;;;;;;;;;38.20;16.00;;;;;;5034636;28;19937;-81
2021/04/26 11:40:17;;;;;;;;;;;39.60;14.70;;;;;;5034558;28;19933;-80
2021/04/26 11:42:43;;;;;;;;;;;40.40;13.20;;;;;;5033283;28;19933;-79
2021/04/26 11:45:11;;;;;;;;;;;41.10;13.30;;;;;;5041685;28;19933;-79
2021/04/26 11:47:38;;;;;;;;;;;41.90;12.90;;;;;;5034993;28;19929;-83
2021/04/26 11:50:06;;;;;;;;;;;42.70;12.70;;;;;;5033076;28;19994;-81
2021/04/26 11:52:33;;;;;;;;;;;43.50;12.30;;;;;;5034491;28;19932;-80
2021/04/26 11:55:08;;;;;;;;;;;44.40;11.80;;;;;;5034548;28;20332;-80
2021/04/26 11:57:39;;;;;;;;;;;44.90;11.20;;;;;;5045166;28;20285;-81
2021/04/26 12:00:06;;;;;;;;;;;45.70;10.80;;;;;;5034897;28;20377;-80
2021/04/26 12:02:37;;;;;;;;;;;46.00;10.60;;;;;;5034787;28;19932;-82
2021/04/26 12:05:06;;;;;;;;;;;46.10;10.30;;;;;;5033420;28;20289;-83
2021/04/26 12:07:33;;;;;;;;;;;45.80;10.50;;;;;;5033408;28;19960;-83
2021/04/26 12:10:14;;;;;;;;;;;45.50;10.00;;;;;;5029186;28;19929;-84
